This is the latest recevied weather packets stored in our database for station/object DW9280. If no packets are shown the sender has not sent any weather packets the latest 10 day(s).
| Time | Temp. | Humidity | Pressure | Rain* | Wind** | Luminosity | Snow |
|---|---|---|---|---|---|---|---|
| 1787928712 | 16.67° C | 91% | 1007.6 hPa | 5.84 mm | - | 30 W/m² | - |
| 1787928409 | 16.67° C | 91% | 1007.5 hPa | 5.33 mm | - | 21 W/m² | - |
| 1787928110 | 16.67° C | 90% | 1007.5 hPa | 4.83 mm | - | 19 W/m² | - |
| 1787927933 | 16.67° C | 90% | 1007.4 hPa | 4.32 mm | - | 16 W/m² | - |
| 1787927511 | 16.67° C | 89% | 1007.3 hPa | 3.81 mm | - | 12 W/m² | - |
| 1787927205 | 16.67° C | 88% | 1007.3 hPa | 3.3 mm | - | 11 W/m² | - |
| 1787926907 | 16.67° C | 87% | 1007.3 hPa | 2.79 mm | - | 9 W/m² | - |
| 1787926597 | 17.22° C | 86% | 1007.3 hPa | 2.29 mm | - | 9 W/m² | - |
| 1787926299 | 17.78° C | 84% | 1007.3 hPa | 1.78 mm | - | 9 W/m² | - |
| 1787926121 | 18.33° C | 83% | 1007.2 hPa | 1.52 mm | - | 11 W/m² | - |
| 1787925821 | 18.89° C | 81% | 1007.3 hPa | 1.02 mm | - | 14 W/m² | - |
| 1787925396 | 19.44° C | 78% | 1007.2 hPa | 0.51 mm | - | 18 W/m² | - |
| 1787925096 | 20.56° C | 76% | 1007.3 hPa | 0.25 mm | - | 23 W/m² | - |
| 1787924796 | 21.11° C | 74% | 1007.2 hPa | 0 mm | - | 28 W/m² | - |
| 1787924497 | 21.67° C | 74% | 1007 hPa | 0 mm | - | 35 W/m² | - |
| 1787924195 | 21.67° C | 73% | 1006.7 hPa | 0 mm | - | 53 W/m² | - |
| 1787923898 | 21.67° C | 71% | 1006.5 hPa | 0 mm | - | 93 W/m² | - |
| 1787923596 | 21.67° C | 70% | 1006.5 hPa | 0 mm | - | 118 W/m² | - |
| 1787923298 | 22.22° C | 69% | 1006.4 hPa | 0 mm | - | 135 W/m² | - |
| 1787922996 | 22.22° C | 69% | 1006.2 hPa | 0 mm | - | 176 W/m² | - |
| 1787922698 | 22.22° C | 69% | 1006.2 hPa | 0 mm | - | 230 W/m² | - |
| 1787922522 | 22.22° C | 68% | 1006.3 hPa | 0 mm | - | 214 W/m² | - |
| 1787922096 | 22.22° C | 68% | 1006.3 hPa | 0 mm | - | 214 W/m² | - |
| 1787921796 | 22.78° C | 68% | 1006.2 hPa | 0 mm | - | 251 W/m² | - |
| 1787921497 | 22.78° C | 71% | 1006.2 hPa | 0 mm | - | 341 W/m² | - |
* Rain latest hour (hover to see other rain measurements)
** Current wind speed in m/s (hover to see current wind gust speed)